createdAt,value
2017-10-22T00:00:10.178Z,0.00
2017-10-22T00:01:10.181Z,0.00
2017-10-22T00:02:10.196Z,0.00
2017-10-22T00:03:10.181Z,0.00
2017-10-22T00:04:10.183Z,0.00
2017-10-22T00:05:10.798Z,0.00
2017-10-22T00:06:10.200Z,0.00
2017-10-22T00:07:12.157Z,0.00
2017-10-22T00:08:10.181Z,0.00
2017-10-22T00:09:10.329Z,0.00
2017-10-22T00:10:10.395Z,0.00
2017-10-22T00:11:10.179Z,0.00
2017-10-22T00:12:10.180Z,0.00
2017-10-22T00:13:10.178Z,0.00
2017-10-22T00:14:10.176Z,0.00
2017-10-22T00:15:10.178Z,0.00
2017-10-22T00:16:12.403Z,0.00
2017-10-22T00:17:10.183Z,0.00
2017-10-22T00:18:10.222Z,0.00
2017-10-22T00:19:10.176Z,0.00
2017-10-22T00:20:10.179Z,0.00
2017-10-22T00:21:10.180Z,0.00
2017-10-22T00:22:10.178Z,0.00
2017-10-22T00:23:11.533Z,0.00
2017-10-22T00:24:10.177Z,0.00
2017-10-22T00:25:10.178Z,0.00
2017-10-22T00:26:10.297Z,0.00
2017-10-22T00:27:10.180Z,0.00
2017-10-22T00:28:10.196Z,0.00
2017-10-22T00:29:10.177Z,0.00
2017-10-22T00:30:10.195Z,0.00
2017-10-22T00:31:10.176Z,0.00
2017-10-22T00:32:10.180Z,0.00
2017-10-22T00:33:10.179Z,0.00
2017-10-22T00:34:10.176Z,0.00
2017-10-22T00:35:10.179Z,0.00
2017-10-22T00:36:10.211Z,0.00
2017-10-22T00:37:10.175Z,0.00
2017-10-22T00:38:10.191Z,0.00
2017-10-22T00:39:10.173Z,0.00
2017-10-22T00:40:10.186Z,0.00
2017-10-22T00:41:10.174Z,0.00
2017-10-22T00:42:10.173Z,0.00
2017-10-22T00:43:10.172Z,0.00
2017-10-22T00:44:10.639Z,0.00
2017-10-22T00:45:10.175Z,0.00
2017-10-22T00:46:10.172Z,0.00
2017-10-22T00:47:10.173Z,0.00
2017-10-22T00:48:10.177Z,0.00
2017-10-22T00:49:10.174Z,0.00
2017-10-22T00:50:10.172Z,0.00
2017-10-22T00:51:10.172Z,0.00
2017-10-22T00:52:10.184Z,0.00
2017-10-22T00:53:10.172Z,0.00
2017-10-22T00:54:10.173Z,0.00
2017-10-22T00:55:10.176Z,0.00
2017-10-22T00:56:10.171Z,0.00
2017-10-22T00:57:10.172Z,0.00
2017-10-22T00:58:10.170Z,0.00
2017-10-22T00:59:10.169Z,0.00
2017-10-22T01:00:10.169Z,0.00
2017-10-22T01:01:10.170Z,0.00
2017-10-22T01:02:10.169Z,0.00
2017-10-22T01:03:10.175Z,0.00
2017-10-22T01:04:10.170Z,0.00
2017-10-22T01:05:10.169Z,0.00
2017-10-22T01:06:10.169Z,0.00
2017-10-22T01:07:10.168Z,0.00
2017-10-22T01:08:10.297Z,0.00
2017-10-22T01:09:10.222Z,0.00
2017-10-22T01:10:10.166Z,0.00
2017-10-22T01:11:10.173Z,0.00
2017-10-22T01:12:10.168Z,0.00
2017-10-22T01:13:10.166Z,0.00
2017-10-22T01:14:10.165Z,0.00
2017-10-22T01:15:10.163Z,0.00
2017-10-22T01:16:10.164Z,0.00
2017-10-22T01:17:10.164Z,0.00
2017-10-22T01:18:10.161Z,0.00
2017-10-22T01:19:10.161Z,0.00
2017-10-22T01:20:10.180Z,0.00
2017-10-22T01:21:10.162Z,0.00
2017-10-22T01:22:10.160Z,0.00
2017-10-22T01:23:10.160Z,0.00
2017-10-22T01:24:10.160Z,0.00
2017-10-22T01:25:10.770Z,0.00
2017-10-22T01:26:10.159Z,0.00
2017-10-22T01:27:10.158Z,0.00
2017-10-22T01:28:10.165Z,0.00
2017-10-22T01:29:10.157Z,0.00
2017-10-22T01:30:10.160Z,0.00
2017-10-22T01:31:10.156Z,0.00
2017-10-22T01:32:10.158Z,0.00
2017-10-22T01:33:10.158Z,0.00
2017-10-22T01:34:10.154Z,0.00
2017-10-22T01:35:10.157Z,0.00
2017-10-22T01:36:10.154Z,0.00
2017-10-22T01:37:10.187Z,0.00
2017-10-22T01:38:10.153Z,0.00
2017-10-22T01:39:10.157Z,0.00
2017-10-22T01:40:10.152Z,0.00
2017-10-22T01:41:10.164Z,0.00
2017-10-22T01:42:10.150Z,0.00
2017-10-22T01:43:10.158Z,0.00
2017-10-22T01:44:10.149Z,0.00
2017-10-22T01:45:10.154Z,0.00
2017-10-22T01:46:10.154Z,0.00
2017-10-22T01:47:10.152Z,0.00
2017-10-22T01:48:10.155Z,0.00
2017-10-22T01:49:10.148Z,0.00
2017-10-22T01:50:10.147Z,0.00
2017-10-22T01:51:10.146Z,0.00
2017-10-22T01:52:10.146Z,0.00
2017-10-22T01:53:10.146Z,0.00
2017-10-22T01:54:10.145Z,0.00
2017-10-22T01:55:10.146Z,0.00
2017-10-22T01:56:10.150Z,0.00
2017-10-22T01:57:10.143Z,0.00
2017-10-22T01:58:10.150Z,0.00
2017-10-22T01:59:10.145Z,0.00
2017-10-22T02:00:10.141Z,0.00
2017-10-22T02:01:10.144Z,0.00
2017-10-22T02:02:10.141Z,0.00
2017-10-22T02:03:10.139Z,0.00
2017-10-22T02:04:10.139Z,0.00
2017-10-22T02:05:10.138Z,0.00
2017-10-22T02:06:10.137Z,0.00
2017-10-22T02:07:10.136Z,0.00
2017-10-22T02:08:10.136Z,0.00
2017-10-22T02:09:10.138Z,0.00
2017-10-22T02:10:10.134Z,0.00
2017-10-22T02:11:10.132Z,0.00
2017-10-22T02:12:10.132Z,0.00
2017-10-22T02:13:10.134Z,0.00
2017-10-22T02:14:10.130Z,0.00
2017-10-22T02:15:10.131Z,0.00
2017-10-22T02:16:10.128Z,0.00
2017-10-22T02:17:10.129Z,0.00
2017-10-22T02:18:10.128Z,0.00
2017-10-22T02:19:10.126Z,0.00
2017-10-22T02:20:10.126Z,0.00
2017-10-22T02:21:10.136Z,0.00
2017-10-22T02:22:10.123Z,0.00
2017-10-22T02:23:10.127Z,0.00
2017-10-22T02:24:10.121Z,0.00
2017-10-22T02:25:10.324Z,0.00
2017-10-22T02:26:10.120Z,0.00
2017-10-22T02:27:10.120Z,0.00
2017-10-22T02:28:10.131Z,0.00
2017-10-22T02:29:10.118Z,0.00
2017-10-22T02:30:10.118Z,0.00
2017-10-22T02:31:10.115Z,0.00
2017-10-22T02:32:10.115Z,0.00
2017-10-22T02:33:10.114Z,0.00
2017-10-22T02:34:10.112Z,0.00
2017-10-22T02:35:10.126Z,0.00
2017-10-22T02:36:10.111Z,0.00
2017-10-22T02:37:10.111Z,0.00
2017-10-22T02:38:10.113Z,0.00
2017-10-22T02:39:10.108Z,0.00
2017-10-22T02:40:10.106Z,0.00
2017-10-22T02:41:10.106Z,0.00
2017-10-22T02:42:10.105Z,0.00
2017-10-22T02:43:10.109Z,0.00
2017-10-22T02:44:10.104Z,0.00
2017-10-22T02:45:10.101Z,0.00
2017-10-22T02:46:10.100Z,0.00
2017-10-22T02:47:10.099Z,0.00
2017-10-22T02:48:10.101Z,0.00
2017-10-22T02:49:10.098Z,0.00
2017-10-22T02:50:10.097Z,0.00
2017-10-22T02:51:10.096Z,0.00
2017-10-22T02:52:10.095Z,0.00
2017-10-22T02:53:10.130Z,0.00
2017-10-22T02:54:10.092Z,0.00
2017-10-22T02:55:10.091Z,0.00
2017-10-22T02:56:10.090Z,0.00
2017-10-22T02:57:10.089Z,0.00
2017-10-22T02:58:10.089Z,0.00
2017-10-22T02:59:10.088Z,0.00
2017-10-22T03:00:10.085Z,0.00
2017-10-22T03:01:10.086Z,0.00
2017-10-22T03:02:10.083Z,0.00
2017-10-22T03:03:10.082Z,0.00
2017-10-22T03:04:10.088Z,0.00
2017-10-22T03:05:10.081Z,0.00
2017-10-22T03:06:10.080Z,0.00
2017-10-22T03:07:10.079Z,0.00
2017-10-22T03:08:10.075Z,0.00
2017-10-22T03:09:10.074Z,0.00
2017-10-22T03:10:10.074Z,0.00
2017-10-22T03:11:10.071Z,0.00
2017-10-22T03:12:10.074Z,0.00
2017-10-22T03:13:10.069Z,0.00
2017-10-22T03:14:10.067Z,0.00
2017-10-22T03:15:10.066Z,0.00
2017-10-22T03:16:10.065Z,0.00
2017-10-22T03:17:10.062Z,0.00
2017-10-22T03:18:33.892Z,0.00
2017-10-22T03:19:10.069Z,0.00
2017-10-22T03:20:10.058Z,0.00
2017-10-22T03:21:10.057Z,0.00
2017-10-22T03:22:10.056Z,0.00
2017-10-22T03:23:10.056Z,0.00
2017-10-22T03:24:10.056Z,0.00
2017-10-22T03:25:10.052Z,0.00
2017-10-22T03:26:10.049Z,0.00
2017-10-22T03:27:10.049Z,0.00
2017-10-22T03:28:10.048Z,0.00
2017-10-22T03:29:10.049Z,0.00
2017-10-22T03:30:10.048Z,0.00
2017-10-22T03:31:10.043Z,0.00
2017-10-22T03:32:10.041Z,0.00
2017-10-22T03:33:10.040Z,0.00
2017-10-22T03:34:10.038Z,0.00
2017-10-22T03:35:10.038Z,0.00
2017-10-22T03:36:10.034Z,0.00
2017-10-22T03:37:10.033Z,0.00
2017-10-22T03:38:10.031Z,0.00
2017-10-22T03:39:10.030Z,0.00
2017-10-22T03:40:10.029Z,0.00
2017-10-22T03:41:10.027Z,0.00
2017-10-22T03:42:10.024Z,0.00
2017-10-22T03:43:10.024Z,0.00
2017-10-22T03:44:10.022Z,0.00
2017-10-22T03:45:10.020Z,0.00
2017-10-22T03:46:10.019Z,0.00
2017-10-22T03:47:10.019Z,0.00
2017-10-22T03:48:10.016Z,0.00
2017-10-22T03:49:10.014Z,0.00
2017-10-22T03:50:10.012Z,0.00
2017-10-22T03:51:10.016Z,0.00
2017-10-22T03:52:10.009Z,0.00
2017-10-22T03:53:10.008Z,0.00
2017-10-22T03:54:10.004Z,0.00
2017-10-22T03:55:10.006Z,0.00
2017-10-22T03:56:10.001Z,0.00
2017-10-22T03:57:10.000Z,0.00
2017-10-22T03:58:09.998Z,0.00
2017-10-22T03:59:09.999Z,0.00
2017-10-22T04:00:09.995Z,0.00
2017-10-22T04:01:09.993Z,0.00
2017-10-22T04:02:09.991Z,0.00
2017-10-22T04:03:09.991Z,0.00
2017-10-22T04:04:09.991Z,0.00
2017-10-22T04:05:09.986Z,0.00
2017-10-22T04:06:09.983Z,0.00
2017-10-22T04:07:09.983Z,0.00
2017-10-22T04:08:09.984Z,0.00
2017-10-22T04:09:09.980Z,0.00
2017-10-22T04:10:09.976Z,0.00
2017-10-22T04:11:09.974Z,0.00
2017-10-22T04:12:09.973Z,0.00
2017-10-22T04:13:09.972Z,0.00
2017-10-22T04:14:09.971Z,0.00
2017-10-22T04:15:09.967Z,0.00
2017-10-22T04:16:09.965Z,0.00
2017-10-22T04:17:09.968Z,0.00
2017-10-22T04:18:09.961Z,0.00
2017-10-22T04:19:09.960Z,0.00
2017-10-22T04:20:09.961Z,0.00
2017-10-22T04:21:09.958Z,0.00
2017-10-22T04:22:09.953Z,0.00
2017-10-22T04:23:09.952Z,0.00
2017-10-22T04:24:09.950Z,0.00
2017-10-22T04:25:09.948Z,0.00
2017-10-22T04:26:09.950Z,0.00
2017-10-22T04:27:09.944Z,0.00
2017-10-22T04:28:09.943Z,0.00
2017-10-22T04:29:09.941Z,0.00
2017-10-22T04:30:09.938Z,0.00
2017-10-22T04:31:09.936Z,0.00
2017-10-22T04:32:09.935Z,0.00
2017-10-22T04:33:09.933Z,0.00
2017-10-22T04:34:09.929Z,0.00
2017-10-22T04:35:09.926Z,0.00
2017-10-22T04:36:09.925Z,0.00
2017-10-22T04:37:09.923Z,0.00
2017-10-22T04:38:09.923Z,0.00
2017-10-22T04:39:09.918Z,0.00
2017-10-22T04:40:09.917Z,0.00
2017-10-22T04:41:09.914Z,0.00
2017-10-22T04:42:09.920Z,0.00
2017-10-22T04:43:09.910Z,0.00
2017-10-22T04:44:09.911Z,0.00
2017-10-22T04:45:09.906Z,0.00
2017-10-22T04:46:09.903Z,0.00
2017-10-22T04:47:09.903Z,0.00
2017-10-22T04:48:09.900Z,0.00
2017-10-22T04:49:09.898Z,0.00
2017-10-22T04:50:09.895Z,0.00
2017-10-22T04:51:09.893Z,0.00
2017-10-22T04:52:09.891Z,0.00
2017-10-22T04:53:09.890Z,0.00
2017-10-22T04:54:09.887Z,0.00
2017-10-22T04:55:09.888Z,0.00
2017-10-22T04:56:09.895Z,0.00
2017-10-22T04:57:09.882Z,0.00
2017-10-22T04:58:09.877Z,0.00
2017-10-22T04:59:09.875Z,0.00
2017-10-22T05:00:09.873Z,0.00
2017-10-22T05:01:09.885Z,0.00
2017-10-22T05:02:09.869Z,0.00
2017-10-22T05:03:09.867Z,0.00
2017-10-22T05:04:09.864Z,0.00
2017-10-22T05:05:09.867Z,0.00
2017-10-22T05:06:09.860Z,0.00
2017-10-22T05:07:09.860Z,0.00
2017-10-22T05:08:09.855Z,0.00
2017-10-22T05:09:09.854Z,0.00
2017-10-22T05:10:09.850Z,0.00
2017-10-22T05:11:09.850Z,0.00
2017-10-22T05:12:09.848Z,0.00
2017-10-22T05:13:09.845Z,0.00
2017-10-22T05:14:09.841Z,0.00
2017-10-22T05:15:09.839Z,0.00
2017-10-22T05:16:09.838Z,0.00
2017-10-22T05:17:09.835Z,0.00
2017-10-22T05:18:09.833Z,0.00
2017-10-22T05:19:09.832Z,0.00
2017-10-22T05:20:09.834Z,0.00
2017-10-22T05:21:09.829Z,0.00
2017-10-22T05:22:09.826Z,0.00
2017-10-22T05:23:09.828Z,0.00
2017-10-22T05:24:09.840Z,0.00
2017-10-22T05:25:09.816Z,0.00
2017-10-22T05:26:09.814Z,0.00
2017-10-22T05:27:09.812Z,0.00
2017-10-22T05:28:09.815Z,0.00
2017-10-22T05:29:09.808Z,0.00
2017-10-22T05:30:09.807Z,0.00
2017-10-22T05:31:09.804Z,0.00
2017-10-22T05:32:09.803Z,0.00
2017-10-22T05:33:09.824Z,0.00
2017-10-22T05:34:09.794Z,0.00
2017-10-22T05:35:09.792Z,0.00
2017-10-22T05:36:09.795Z,0.00
2017-10-22T05:37:09.791Z,0.00
2017-10-22T05:38:09.785Z,0.00
2017-10-22T05:39:09.784Z,0.00
2017-10-22T05:40:09.782Z,0.00
2017-10-22T05:41:09.782Z,0.00
2017-10-22T05:42:09.776Z,0.00
2017-10-22T05:43:10.415Z,0.00
2017-10-22T05:44:09.776Z,0.00
2017-10-22T05:45:09.769Z,0.00
2017-10-22T05:46:09.766Z,0.00
2017-10-22T05:47:09.764Z,0.00
2017-10-22T05:48:09.767Z,0.00
2017-10-22T05:49:09.764Z,0.00
2017-10-22T05:50:09.755Z,0.00
2017-10-22T05:51:09.753Z,0.00
2017-10-22T05:52:09.751Z,0.00
2017-10-22T05:53:09.751Z,0.00
2017-10-22T05:54:09.747Z,0.00
2017-10-22T05:55:09.744Z,0.00
2017-10-22T05:56:09.741Z,0.00
2017-10-22T05:57:09.741Z,5.63
2017-10-22T05:58:09.741Z,5.63
2017-10-22T05:59:09.734Z,5.63
2017-10-22T06:00:09.731Z,5.63
2017-10-22T06:01:09.728Z,5.63
2017-10-22T06:02:09.725Z,5.63
2017-10-22T06:03:09.726Z,5.63
2017-10-22T06:04:09.721Z,5.63
2017-10-22T06:05:09.719Z,5.63
2017-10-22T06:06:09.721Z,5.63
2017-10-22T06:07:09.714Z,5.63
2017-10-22T06:08:09.712Z,5.63
2017-10-22T06:09:09.709Z,5.63
2017-10-22T06:10:09.705Z,5.63
2017-10-22T06:11:09.703Z,5.63
2017-10-22T06:12:09.702Z,5.63
2017-10-22T06:13:09.699Z,5.63
2017-10-22T06:14:09.694Z,11.25
2017-10-22T06:15:09.693Z,11.25
2017-10-22T06:16:09.703Z,11.25
2017-10-22T06:17:09.687Z,11.25
2017-10-22T06:18:09.686Z,11.25
2017-10-22T06:19:09.686Z,11.25
2017-10-22T06:20:09.682Z,11.25
2017-10-22T06:21:09.679Z,11.25
2017-10-22T06:22:09.677Z,16.88
2017-10-22T06:23:09.674Z,16.88
2017-10-22T06:24:09.672Z,16.88
2017-10-22T06:25:09.669Z,16.88
2017-10-22T06:26:09.667Z,11.25
2017-10-22T06:27:09.663Z,11.25
2017-10-22T06:28:09.665Z,16.88
2017-10-22T06:29:09.664Z,16.88
2017-10-22T06:30:09.656Z,16.88
2017-10-22T06:31:09.654Z,16.88
2017-10-22T06:32:09.656Z,16.88
2017-10-22T06:33:09.653Z,16.88
2017-10-22T06:34:09.646Z,16.88
2017-10-22T06:35:09.644Z,16.88
2017-10-22T06:36:09.641Z,16.88
2017-10-22T06:37:09.639Z,16.88
2017-10-22T06:38:09.636Z,16.88
2017-10-22T06:39:09.642Z,16.88
2017-10-22T06:40:09.632Z,16.88
2017-10-22T06:41:09.629Z,16.88
2017-10-22T06:42:09.625Z,16.88
2017-10-22T06:43:09.625Z,16.88
2017-10-22T06:44:09.622Z,16.88
2017-10-22T06:45:09.619Z,16.88
2017-10-22T06:46:09.623Z,22.50
2017-10-22T06:47:09.613Z,22.50
2017-10-22T06:48:09.611Z,22.50
2017-10-22T06:49:09.608Z,22.50
2017-10-22T06:50:09.604Z,22.50
2017-10-22T06:51:09.601Z,22.50
2017-10-22T06:52:09.601Z,22.50
2017-10-22T06:53:09.598Z,22.50
2017-10-22T06:54:09.593Z,22.50
2017-10-22T06:55:09.602Z,22.50
2017-10-22T06:56:09.589Z,28.13
2017-10-22T06:57:09.586Z,28.13
2017-10-22T06:58:09.583Z,28.13
2017-10-22T06:59:09.581Z,28.13
2017-10-22T07:00:09.579Z,28.13
2017-10-22T07:01:09.580Z,28.13
2017-10-22T07:02:09.574Z,28.13
2017-10-22T07:03:09.577Z,28.13
2017-10-22T07:04:09.569Z,22.50
2017-10-22T07:05:09.566Z,28.13
2017-10-22T07:06:09.562Z,28.13
2017-10-22T07:07:09.561Z,28.13
2017-10-22T07:08:09.559Z,28.13
2017-10-22T07:09:09.556Z,28.13
2017-10-22T07:10:09.552Z,28.13
2017-10-22T07:11:09.555Z,28.13
2017-10-22T07:12:09.548Z,28.13
2017-10-22T07:13:09.546Z,28.13
2017-10-22T07:14:09.542Z,28.13
2017-10-22T07:15:09.540Z,28.13
2017-10-22T07:16:09.539Z,28.13
2017-10-22T07:17:10.491Z,28.13
2017-10-22T07:18:11.656Z,28.13
2017-10-22T07:19:09.532Z,28.13
2017-10-22T07:20:09.529Z,28.13
2017-10-22T07:21:09.526Z,28.13
2017-10-22T07:22:09.523Z,28.13
2017-10-22T07:23:09.522Z,28.13
2017-10-22T07:24:09.519Z,28.13
2017-10-22T07:25:09.516Z,28.13
2017-10-22T07:26:09.514Z,28.13
2017-10-22T07:27:09.512Z,28.13
2017-10-22T07:28:09.511Z,28.13
2017-10-22T07:29:09.509Z,28.13
2017-10-22T07:30:09.504Z,33.75
2017-10-22T07:31:09.502Z,33.75
2017-10-22T07:32:09.500Z,33.75
2017-10-22T07:33:09.497Z,33.75
2017-10-22T07:34:09.499Z,33.75
2017-10-22T07:35:09.493Z,33.75
2017-10-22T07:36:09.490Z,33.75
2017-10-22T07:37:09.488Z,33.75
2017-10-22T07:38:09.489Z,33.75
2017-10-22T07:39:09.483Z,33.75
2017-10-22T07:40:09.481Z,33.75
2017-10-22T07:41:09.486Z,33.75
2017-10-22T07:42:09.477Z,33.75
2017-10-22T07:43:09.474Z,33.75
2017-10-22T07:44:09.472Z,33.75
2017-10-22T07:45:09.470Z,33.75
2017-10-22T07:46:09.466Z,33.75
2017-10-22T07:47:09.466Z,33.75
2017-10-22T07:48:09.463Z,33.75
2017-10-22T07:49:09.461Z,33.75
2017-10-22T07:50:09.457Z,33.75
2017-10-22T07:51:09.456Z,33.75
2017-10-22T07:52:09.453Z,33.75
2017-10-22T07:53:09.453Z,33.75
2017-10-22T07:54:09.451Z,33.75
2017-10-22T07:55:09.447Z,33.75
2017-10-22T07:56:09.445Z,33.75
2017-10-22T07:57:09.444Z,33.75
2017-10-22T07:58:09.439Z,33.75
2017-10-22T07:59:09.441Z,33.75
2017-10-22T08:00:09.435Z,33.75
2017-10-22T08:01:09.433Z,33.75
2017-10-22T08:02:09.430Z,33.75
2017-10-22T08:03:09.429Z,33.75
2017-10-22T08:04:09.427Z,33.75
2017-10-22T08:05:09.433Z,33.75
2017-10-22T08:06:09.426Z,33.75
2017-10-22T08:07:09.421Z,33.75
2017-10-22T08:08:09.421Z,33.75
2017-10-22T08:09:09.415Z,39.38
2017-10-22T08:10:09.412Z,39.38
2017-10-22T08:11:09.411Z,39.38
2017-10-22T08:12:09.408Z,39.38
2017-10-22T08:13:09.407Z,39.38
2017-10-22T08:14:09.405Z,39.38
2017-10-22T08:15:09.408Z,39.38
2017-10-22T08:16:09.402Z,39.38
2017-10-22T08:17:09.398Z,39.38
2017-10-22T08:18:09.396Z,39.38
2017-10-22T08:19:09.393Z,39.38
2017-10-22T08:20:09.393Z,39.38
2017-10-22T08:21:09.393Z,39.38
2017-10-22T08:22:09.388Z,39.38
2017-10-22T08:23:09.386Z,39.38
2017-10-22T08:24:09.385Z,39.38
2017-10-22T08:25:09.424Z,39.38
2017-10-22T08:26:09.379Z,39.38
2017-10-22T08:27:09.377Z,39.38
2017-10-22T08:28:09.411Z,39.38
2017-10-22T08:29:09.378Z,39.38
2017-10-22T08:30:09.371Z,39.38
2017-10-22T08:31:09.369Z,39.38
2017-10-22T08:32:09.375Z,39.38
2017-10-22T08:33:09.366Z,39.38
2017-10-22T08:34:09.364Z,39.38
2017-10-22T08:35:09.361Z,39.38
2017-10-22T08:36:09.360Z,45.00
2017-10-22T08:37:09.359Z,45.00
2017-10-22T08:38:09.356Z,45.00
2017-10-22T08:39:09.356Z,45.00
2017-10-22T08:40:09.385Z,67.50
2017-10-22T08:41:09.350Z,73.13
2017-10-22T08:42:09.351Z,67.50
2017-10-22T08:43:09.346Z,73.13
2017-10-22T08:44:09.344Z,61.88
2017-10-22T08:45:09.343Z,67.50
2017-10-22T08:46:09.344Z,78.75
2017-10-22T08:47:09.339Z,73.13
2017-10-22T08:48:09.336Z,78.75
2017-10-22T08:49:09.335Z,84.38
2017-10-22T08:50:09.333Z,90.00
2017-10-22T08:51:09.331Z,78.75
2017-10-22T08:52:09.329Z,73.13
2017-10-22T08:53:09.329Z,78.75
2017-10-22T08:54:09.326Z,78.75
2017-10-22T08:55:09.324Z,95.63
2017-10-22T08:56:09.323Z,78.75
2017-10-22T08:57:09.322Z,67.50
2017-10-22T08:58:09.320Z,61.88
2017-10-22T08:59:09.327Z,78.75
2017-10-22T09:00:09.318Z,73.13
2017-10-22T09:01:09.316Z,84.38
2017-10-22T09:02:09.313Z,78.75
2017-10-22T09:03:09.320Z,73.13
2017-10-22T09:04:09.364Z,78.75
2017-10-22T09:05:09.310Z,78.75
2017-10-22T09:06:09.310Z,56.25
2017-10-22T09:07:09.309Z,61.88
2017-10-22T09:08:09.305Z,73.13
2017-10-22T09:09:09.315Z,84.38
2017-10-22T09:10:09.304Z,84.38
2017-10-22T09:11:09.303Z,78.75
2017-10-22T09:12:09.311Z,78.75
2017-10-22T09:13:09.302Z,73.13
2017-10-22T09:14:09.298Z,78.75
2017-10-22T09:15:09.297Z,73.13
2017-10-22T09:16:09.296Z,84.38
2017-10-22T09:17:09.296Z,84.38
2017-10-22T09:18:09.293Z,67.50
2017-10-22T09:19:09.293Z,73.13
2017-10-22T09:20:09.292Z,67.50
2017-10-22T09:21:09.293Z,67.50
2017-10-22T09:22:09.301Z,90.00
2017-10-22T09:23:09.289Z,78.75
2017-10-22T09:24:09.289Z,78.75
2017-10-22T09:25:09.287Z,84.38
2017-10-22T09:26:09.294Z,84.38
2017-10-22T09:27:09.285Z,73.13
2017-10-22T09:28:09.284Z,90.00
2017-10-22T09:29:09.283Z,95.63
2017-10-22T09:30:09.331Z,78.75
2017-10-22T09:31:09.280Z,73.13
2017-10-22T09:32:09.279Z,73.13
2017-10-22T09:33:09.280Z,73.13
2017-10-22T09:34:09.279Z,61.88
2017-10-22T09:35:09.277Z,56.25
2017-10-22T09:36:09.277Z,50.63
2017-10-22T09:37:09.276Z,56.25
2017-10-22T09:38:09.274Z,90.00
2017-10-22T09:39:09.274Z,90.00
2017-10-22T09:40:09.273Z,67.50
2017-10-22T09:41:09.272Z,84.38
2017-10-22T09:42:09.276Z,67.50
2017-10-22T09:43:09.293Z,61.88
2017-10-22T09:44:09.271Z,61.88
2017-10-22T09:45:09.269Z,73.13
2017-10-22T09:46:09.266Z,73.13
2017-10-22T09:47:09.269Z,84.38
2017-10-22T09:48:09.266Z,84.38
2017-10-22T09:49:09.264Z,90.00
2017-10-22T09:50:09.264Z,112.50
2017-10-22T09:51:09.265Z,106.88
2017-10-22T09:52:09.263Z,106.88
2017-10-22T09:53:09.261Z,84.38
2017-10-22T09:54:09.260Z,90.00
2017-10-22T09:55:09.259Z,90.00
2017-10-22T09:56:09.271Z,84.38
2017-10-22T09:57:09.261Z,78.75
2017-10-22T09:58:09.256Z,101.25
2017-10-22T09:59:09.258Z,84.38
2017-10-22T10:00:09.255Z,112.50
2017-10-22T10:01:09.258Z,112.50
2017-10-22T10:02:09.260Z,101.25
2017-10-22T10:03:09.254Z,106.88
2017-10-22T10:04:09.254Z,112.50
2017-10-22T10:05:09.252Z,95.63
2017-10-22T10:06:09.252Z,84.38
2017-10-22T10:07:09.255Z,90.00
2017-10-22T10:08:09.251Z,101.25
2017-10-22T10:09:09.249Z,123.75
2017-10-22T10:10:09.253Z,129.38
2017-10-22T10:11:09.248Z,118.13
2017-10-22T10:12:09.249Z,112.50
2017-10-22T10:13:09.251Z,101.25
2017-10-22T10:14:09.247Z,95.63
2017-10-22T10:15:09.266Z,95.63
2017-10-22T10:16:09.246Z,106.88
2017-10-22T10:17:09.246Z,101.25
2017-10-22T10:18:09.244Z,90.00
2017-10-22T10:19:09.247Z,78.75
2017-10-22T10:20:09.248Z,90.00
2017-10-22T10:21:09.244Z,84.38
2017-10-22T10:22:09.244Z,95.63
2017-10-22T10:23:09.244Z,95.63
2017-10-22T10:24:09.244Z,101.25
2017-10-22T10:25:09.243Z,118.13
2017-10-22T10:26:09.243Z,135.00
2017-10-22T10:27:09.240Z,140.63
2017-10-22T10:28:09.247Z,140.63
2017-10-22T10:29:09.248Z,140.63
2017-10-22T10:30:09.238Z,129.38
2017-10-22T10:31:09.238Z,112.50
2017-10-22T10:32:09.238Z,112.50
2017-10-22T10:33:09.240Z,106.88
2017-10-22T10:34:09.237Z,106.88
2017-10-22T10:35:09.242Z,101.25
2017-10-22T10:36:09.236Z,95.63
2017-10-22T10:37:09.235Z,95.63
2017-10-22T10:38:09.238Z,112.50
2017-10-22T10:39:09.235Z,101.25
2017-10-22T10:40:09.235Z,101.25
2017-10-22T10:41:09.236Z,123.75
2017-10-22T10:42:09.233Z,123.75
2017-10-22T10:43:09.238Z,123.75
2017-10-22T10:44:09.232Z,140.63
2017-10-22T10:45:09.234Z,146.25
2017-10-22T10:46:09.231Z,151.88
2017-10-22T10:47:09.231Z,163.13
2017-10-22T10:48:09.961Z,163.13
2017-10-22T10:49:09.231Z,157.50
2017-10-22T10:50:09.231Z,151.88
2017-10-22T10:51:09.229Z,146.25
2017-10-22T10:52:09.231Z,146.25
2017-10-22T10:53:09.231Z,140.63
2017-10-22T10:54:09.939Z,157.50
2017-10-22T10:55:09.241Z,168.75
2017-10-22T10:56:09.229Z,157.50
2017-10-22T10:57:09.232Z,140.63
2017-10-22T10:58:09.230Z,163.13
2017-10-22T10:59:09.229Z,135.00
2017-10-22T11:00:09.230Z,129.38
2017-10-22T11:01:09.231Z,123.75
2017-10-22T11:02:09.230Z,140.63
2017-10-22T11:03:09.255Z,135.00
2017-10-22T11:04:09.230Z,135.00
2017-10-22T11:05:09.230Z,146.25
2017-10-22T11:06:09.229Z,151.88
2017-10-22T11:07:09.231Z,163.13
2017-10-22T11:08:09.230Z,157.50
2017-10-22T11:09:09.235Z,157.50
2017-10-22T11:10:09.230Z,146.25
2017-10-22T11:11:09.233Z,146.25
2017-10-22T11:12:09.231Z,140.63
2017-10-22T11:13:09.231Z,135.00
2017-10-22T11:14:09.229Z,129.38
2017-10-22T11:15:09.236Z,135.00
2017-10-22T11:16:09.231Z,135.00
2017-10-22T11:17:09.233Z,129.38
2017-10-22T11:18:09.232Z,135.00
2017-10-22T11:19:09.234Z,135.00
2017-10-22T11:20:09.236Z,129.38
2017-10-22T11:21:09.233Z,123.75
2017-10-22T11:22:09.232Z,118.13
2017-10-22T11:23:09.234Z,123.75
2017-10-22T11:24:09.234Z,129.38
2017-10-22T11:25:09.233Z,129.38
2017-10-22T11:26:09.232Z,123.75
2017-10-22T11:27:09.235Z,123.75
2017-10-22T11:28:09.235Z,129.38
2017-10-22T11:29:09.234Z,135.00
2017-10-22T11:30:09.233Z,135.00
2017-10-22T11:31:09.233Z,123.75
2017-10-22T11:32:09.233Z,112.50
2017-10-22T11:33:09.234Z,106.88
2017-10-22T11:34:09.236Z,112.50
2017-10-22T11:35:09.234Z,101.25
2017-10-22T11:36:09.241Z,95.63
2017-10-22T11:37:09.236Z,90.00
2017-10-22T11:38:09.242Z,84.38
2017-10-22T11:39:09.240Z,95.63
2017-10-22T11:40:09.234Z,90.00
2017-10-22T11:41:09.238Z,90.00
2017-10-22T11:42:09.233Z,84.38
2017-10-22T11:43:09.234Z,84.38
2017-10-22T11:44:09.234Z,90.00
2017-10-22T11:45:09.236Z,95.63
2017-10-22T11:46:09.234Z,84.38
2017-10-22T11:47:09.234Z,73.13
2017-10-22T11:48:09.236Z,67.50
2017-10-22T11:49:09.236Z,67.50
2017-10-22T11:50:09.234Z,61.88
2017-10-22T11:51:09.235Z,61.88
2017-10-22T11:52:09.234Z,61.88
2017-10-22T11:53:09.238Z,61.88
2017-10-22T11:54:09.271Z,61.88
2017-10-22T11:55:09.240Z,61.88
2017-10-22T11:56:09.235Z,61.88
2017-10-22T11:57:09.236Z,61.88
2017-10-22T11:58:09.369Z,61.88
2017-10-22T11:59:09.239Z,67.50
2017-10-22T12:00:09.234Z,67.50
2017-10-22T12:01:09.235Z,61.88
2017-10-22T12:02:09.236Z,67.50
2017-10-22T12:03:09.235Z,73.13
2017-10-22T12:04:09.292Z,67.50
2017-10-22T12:05:09.234Z,78.75
2017-10-22T12:06:09.234Z,78.75
2017-10-22T12:07:09.234Z,73.13
2017-10-22T12:08:09.233Z,73.13
2017-10-22T12:09:09.233Z,73.13
2017-10-22T12:10:09.231Z,73.13
2017-10-22T12:11:09.232Z,73.13
2017-10-22T12:12:09.231Z,73.13
2017-10-22T12:13:09.232Z,67.50
2017-10-22T12:14:09.230Z,67.50
2017-10-22T12:15:09.644Z,50.63
2017-10-22T12:16:09.234Z,50.63
2017-10-22T12:17:09.230Z,45.00
2017-10-22T12:18:09.232Z,50.63
2017-10-22T12:19:09.230Z,56.25
2017-10-22T12:20:09.231Z,45.00
2017-10-22T12:21:09.232Z,56.25
2017-10-22T12:22:09.235Z,50.63
2017-10-22T12:23:09.230Z,56.25
2017-10-22T12:24:09.241Z,56.25
2017-10-22T12:25:09.231Z,50.63
2017-10-22T12:26:09.231Z,56.25
2017-10-22T12:27:09.231Z,61.88
2017-10-22T12:28:09.229Z,61.88
2017-10-22T12:29:09.229Z,61.88
2017-10-22T12:30:09.228Z,73.13
2017-10-22T12:31:09.230Z,73.13
2017-10-22T12:32:09.230Z,67.50
2017-10-22T12:33:09.233Z,73.13
2017-10-22T12:34:09.230Z,73.13
2017-10-22T12:35:09.228Z,78.75
2017-10-22T12:36:09.227Z,78.75
2017-10-22T12:37:09.230Z,73.13
2017-10-22T12:38:09.231Z,73.13
2017-10-22T12:39:09.230Z,73.13
2017-10-22T12:40:09.229Z,73.13
2017-10-22T12:41:09.373Z,73.13
2017-10-22T12:42:09.229Z,67.50
2017-10-22T12:43:09.229Z,67.50
2017-10-22T12:44:09.228Z,67.50
2017-10-22T12:45:09.230Z,67.50
2017-10-22T12:46:09.232Z,67.50
2017-10-22T12:47:09.231Z,67.50
2017-10-22T12:48:09.233Z,67.50
2017-10-22T12:49:09.236Z,73.13
2017-10-22T12:50:09.237Z,67.50
2017-10-22T12:51:09.239Z,67.50
2017-10-22T12:52:09.312Z,67.50
2017-10-22T12:53:09.221Z,67.50
2017-10-22T12:54:09.223Z,73.13
2017-10-22T12:55:09.219Z,67.50
2017-10-22T12:56:09.234Z,73.13
2017-10-22T12:57:09.219Z,67.50
2017-10-22T12:58:09.218Z,73.13
2017-10-22T12:59:09.222Z,78.75
2017-10-22T13:00:09.216Z,84.38
2017-10-22T13:01:09.216Z,73.13